sensor_id;sensor_type;location;lat;lon;timestamp;P1;durP1;ratioP1;P2;durP2;ratioP2
40256;SDS011;25977;45.462;9.210;2024-01-30T00:01:45;45.08;;;21.55;;
40256;SDS011;25977;45.462;9.210;2024-01-30T00:04:13;43.60;;;22.25;;
40256;SDS011;25977;45.462;9.210;2024-01-30T00:06:38;48.60;;;22.13;;
40256;SDS011;25977;45.462;9.210;2024-01-30T00:09:04;50.20;;;25.25;;
40256;SDS011;25977;45.462;9.210;2024-01-30T00:11:30;40.05;;;21.10;;
40256;SDS011;25977;45.462;9.210;2024-01-30T00:13:56;44.03;;;22.00;;
40256;SDS011;25977;45.462;9.210;2024-01-30T00:16:22;39.67;;;21.77;;
40256;SDS011;25977;45.462;9.210;2024-01-30T00:18:52;44.00;;;23.95;;
40256;SDS011;25977;45.462;9.210;2024-01-30T00:21:19;50.50;;;23.05;;
40256;SDS011;25977;45.462;9.210;2024-01-30T00:23:45;51.78;;;23.08;;
40256;SDS011;25977;45.462;9.210;2024-01-30T00:26:11;44.78;;;23.60;;
40256;SDS011;25977;45.462;9.210;2024-01-30T00:28:40;46.10;;;23.17;;
40256;SDS011;25977;45.462;9.210;2024-01-30T00:31:06;41.63;;;23.25;;
40256;SDS011;25977;45.462;9.210;2024-01-30T00:33:32;48.60;;;23.48;;
40256;SDS011;25977;45.462;9.210;2024-01-30T00:35:58;42.35;;;21.02;;
40256;SDS011;25977;45.462;9.210;2024-01-30T00:38:24;39.35;;;20.85;;
40256;SDS011;25977;45.462;9.210;2024-01-30T00:40:49;43.55;;;22.73;;
40256;SDS011;25977;45.462;9.210;2024-01-30T00:43:15;45.42;;;22.55;;
40256;SDS011;25977;45.462;9.210;2024-01-30T00:45:43;46.40;;;22.20;;
40256;SDS011;25977;45.462;9.210;2024-01-30T00:48:08;48.13;;;20.00;;
40256;SDS011;25977;45.462;9.210;2024-01-30T00:50:34;44.35;;;21.38;;
40256;SDS011;25977;45.462;9.210;2024-01-30T00:52:59;47.63;;;22.20;;
40256;SDS011;25977;45.462;9.210;2024-01-30T00:55:25;43.22;;;21.92;;
40256;SDS011;25977;45.462;9.210;2024-01-30T00:57:51;51.78;;;24.23;;
40256;SDS011;25977;45.462;9.210;2024-01-30T01:00:16;40.88;;;20.63;;
40256;SDS011;25977;45.462;9.210;2024-01-30T01:02:42;53.03;;;22.15;;
40256;SDS011;25977;45.462;9.210;2024-01-30T01:05:08;51.38;;;21.77;;
40256;SDS011;25977;45.462;9.210;2024-01-30T01:07:34;49.10;;;21.00;;
40256;SDS011;25977;45.462;9.210;2024-01-30T01:10:00;53.00;;;20.73;;
40256;SDS011;25977;45.462;9.210;2024-01-30T01:12:26;48.55;;;22.60;;
40256;SDS011;25977;45.462;9.210;2024-01-30T01:14:51;48.97;;;22.23;;
40256;SDS011;25977;45.462;9.210;2024-01-30T01:17:17;51.20;;;23.17;;
40256;SDS011;25977;45.462;9.210;2024-01-30T01:19:43;44.95;;;20.10;;
40256;SDS011;25977;45.462;9.210;2024-01-30T01:22:09;50.47;;;21.65;;
40256;SDS011;25977;45.462;9.210;2024-01-30T01:24:36;45.90;;;20.50;;
40256;SDS011;25977;45.462;9.210;2024-01-30T01:27:01;46.22;;;20.83;;
40256;SDS011;25977;45.462;9.210;2024-01-30T01:29:27;48.90;;;21.65;;
40256;SDS011;25977;45.462;9.210;2024-01-30T01:31:57;47.92;;;21.83;;
40256;SDS011;25977;45.462;9.210;2024-01-30T01:34:23;48.20;;;21.02;;
40256;SDS011;25977;45.462;9.210;2024-01-30T01:36:49;44.72;;;21.50;;
40256;SDS011;25977;45.462;9.210;2024-01-30T01:39:15;47.45;;;21.52;;
40256;SDS011;25977;45.462;9.210;2024-01-30T01:41:41;46.67;;;21.33;;
40256;SDS011;25977;45.462;9.210;2024-01-30T01:44:07;42.88;;;20.98;;
40256;SDS011;25977;45.462;9.210;2024-01-30T01:46:34;48.03;;;22.08;;
40256;SDS011;25977;45.462;9.210;2024-01-30T01:49:00;46.67;;;22.17;;
40256;SDS011;25977;45.462;9.210;2024-01-30T01:51:27;49.88;;;22.95;;
40256;SDS011;25977;45.462;9.210;2024-01-30T01:53:56;48.78;;;21.77;;
40256;SDS011;25977;45.462;9.210;2024-01-30T01:56:23;36.88;;;19.83;;
40256;SDS011;25977;45.462;9.210;2024-01-30T01:58:51;43.78;;;21.13;;
40256;SDS011;25977;45.462;9.210;2024-01-30T02:01:18;41.40;;;20.60;;
40256;SDS011;25977;45.462;9.210;2024-01-30T02:03:45;47.42;;;22.00;;
40256;SDS011;25977;45.462;9.210;2024-01-30T02:06:12;41.83;;;20.85;;
40256;SDS011;25977;45.462;9.210;2024-01-30T02:08:38;45.65;;;22.08;;
40256;SDS011;25977;45.462;9.210;2024-01-30T02:11:04;41.38;;;22.73;;
40256;SDS011;25977;45.462;9.210;2024-01-30T02:13:30;38.22;;;20.17;;
40256;SDS011;25977;45.462;9.210;2024-01-30T02:15:56;43.40;;;20.25;;
40256;SDS011;25977;45.462;9.210;2024-01-30T02:18:22;36.55;;;18.35;;
40256;SDS011;25977;45.462;9.210;2024-01-30T02:20:48;39.17;;;21.02;;
40256;SDS011;25977;45.462;9.210;2024-01-30T02:23:15;41.78;;;20.17;;
40256;SDS011;25977;45.462;9.210;2024-01-30T02:25:41;46.25;;;19.90;;
40256;SDS011;25977;45.462;9.210;2024-01-30T02:28:14;42.38;;;20.67;;
40256;SDS011;25977;45.462;9.210;2024-01-30T02:30:42;41.72;;;20.83;;
40256;SDS011;25977;45.462;9.210;2024-01-30T02:33:08;43.47;;;20.65;;
40256;SDS011;25977;45.462;9.210;2024-01-30T02:35:34;41.63;;;20.95;;
40256;SDS011;25977;45.462;9.210;2024-01-30T02:38:00;43.35;;;20.88;;
40256;SDS011;25977;45.462;9.210;2024-01-30T02:40:26;41.47;;;21.05;;
40256;SDS011;25977;45.462;9.210;2024-01-30T02:42:51;46.13;;;22.63;;
40256;SDS011;25977;45.462;9.210;2024-01-30T02:45:17;48.42;;;19.48;;
40256;SDS011;25977;45.462;9.210;2024-01-30T02:47:43;38.63;;;19.08;;
40256;SDS011;25977;45.462;9.210;2024-01-30T02:50:09;42.08;;;20.00;;
40256;SDS011;25977;45.462;9.210;2024-01-30T02:52:35;50.40;;;23.50;;
40256;SDS011;25977;45.462;9.210;2024-01-30T02:55:01;41.35;;;22.63;;
40256;SDS011;25977;45.462;9.210;2024-01-30T02:57:27;43.95;;;21.00;;
40256;SDS011;25977;45.462;9.210;2024-01-30T02:59:54;49.17;;;23.90;;
40256;SDS011;25977;45.462;9.210;2024-01-30T03:02:20;53.00;;;23.98;;
40256;SDS011;25977;45.462;9.210;2024-01-30T03:04:46;49.30;;;23.10;;
40256;SDS011;25977;45.462;9.210;2024-01-30T03:07:12;49.38;;;24.05;;
40256;SDS011;25977;45.462;9.210;2024-01-30T03:09:37;55.47;;;24.52;;
40256;SDS011;25977;45.462;9.210;2024-01-30T03:12:03;48.88;;;24.20;;
40256;SDS011;25977;45.462;9.210;2024-01-30T03:14:33;51.42;;;24.63;;
40256;SDS011;25977;45.462;9.210;2024-01-30T03:16:58;47.17;;;23.20;;
40256;SDS011;25977;45.462;9.210;2024-01-30T03:19:24;39.88;;;21.45;;
40256;SDS011;25977;45.462;9.210;2024-01-30T03:21:50;47.08;;;23.20;;
40256;SDS011;25977;45.462;9.210;2024-01-30T03:24:16;44.17;;;21.40;;
40256;SDS011;25977;45.462;9.210;2024-01-30T03:26:42;49.63;;;22.50;;
40256;SDS011;25977;45.462;9.210;2024-01-30T03:29:08;46.97;;;21.60;;
40256;SDS011;25977;45.462;9.210;2024-01-30T03:31:34;52.22;;;22.42;;
40256;SDS011;25977;45.462;9.210;2024-01-30T03:34:00;45.15;;;22.83;;
40256;SDS011;25977;45.462;9.210;2024-01-30T03:36:27;44.30;;;22.08;;
40256;SDS011;25977;45.462;9.210;2024-01-30T03:38:53;46.45;;;22.20;;
40256;SDS011;25977;45.462;9.210;2024-01-30T03:41:19;41.83;;;21.20;;
40256;SDS011;25977;45.462;9.210;2024-01-30T03:43:44;46.22;;;22.35;;
40256;SDS011;25977;45.462;9.210;2024-01-30T03:46:12;45.00;;;22.70;;
40256;SDS011;25977;45.462;9.210;2024-01-30T03:48:38;42.97;;;20.90;;
40256;SDS011;25977;45.462;9.210;2024-01-30T03:51:04;47.92;;;22.75;;
40256;SDS011;25977;45.462;9.210;2024-01-30T03:53:30;57.38;;;22.90;;
40256;SDS011;25977;45.462;9.210;2024-01-30T03:55:56;40.38;;;21.67;;
40256;SDS011;25977;45.462;9.210;2024-01-30T03:58:22;47.92;;;21.75;;
40256;SDS011;25977;45.462;9.210;2024-01-30T04:00:48;45.00;;;21.48;;
40256;SDS011;25977;45.462;9.210;2024-01-30T04:03:14;42.88;;;21.15;;
40256;SDS011;25977;45.462;9.210;2024-01-30T04:05:40;49.38;;;21.02;;
40256;SDS011;25977;45.462;9.210;2024-01-30T04:08:07;49.33;;;24.30;;
40256;SDS011;25977;45.462;9.210;2024-01-30T04:10:33;43.22;;;22.63;;
40256;SDS011;25977;45.462;9.210;2024-01-30T04:12:58;40.22;;;21.08;;
40256;SDS011;25977;45.462;9.210;2024-01-30T04:15:25;40.70;;;19.65;;
40256;SDS011;25977;45.462;9.210;2024-01-30T04:17:50;43.92;;;19.90;;
40256;SDS011;25977;45.462;9.210;2024-01-30T04:20:16;39.95;;;20.10;;
40256;SDS011;25977;45.462;9.210;2024-01-30T04:22:45;39.20;;;19.30;;
40256;SDS011;25977;45.462;9.210;2024-01-30T04:25:12;43.78;;;20.70;;
40256;SDS011;25977;45.462;9.210;2024-01-30T04:27:39;43.53;;;20.02;;
40256;SDS011;25977;45.462;9.210;2024-01-30T04:30:04;44.42;;;21.20;;
40256;SDS011;25977;45.462;9.210;2024-01-30T04:32:31;42.90;;;20.10;;
40256;SDS011;25977;45.462;9.210;2024-01-30T04:34:57;39.72;;;20.17;;
40256;SDS011;25977;45.462;9.210;2024-01-30T04:37:23;36.78;;;20.50;;
40256;SDS011;25977;45.462;9.210;2024-01-30T04:39:49;34.60;;;19.23;;
40256;SDS011;25977;45.462;9.210;2024-01-30T04:42:16;40.25;;;20.45;;
40256;SDS011;25977;45.462;9.210;2024-01-30T04:44:42;38.03;;;20.48;;
40256;SDS011;25977;45.462;9.210;2024-01-30T04:47:08;41.50;;;20.50;;
40256;SDS011;25977;45.462;9.210;2024-01-30T04:49:36;36.35;;;19.35;;
40256;SDS011;25977;45.462;9.210;2024-01-30T04:52:02;35.63;;;19.90;;
40256;SDS011;25977;45.462;9.210;2024-01-30T04:54:27;33.83;;;19.77;;
40256;SDS011;25977;45.462;9.210;2024-01-30T04:56:53;39.22;;;18.77;;
40256;SDS011;25977;45.462;9.210;2024-01-30T04:59:19;35.95;;;17.77;;
40256;SDS011;25977;45.462;9.210;2024-01-30T05:01:44;33.80;;;18.23;;
40256;SDS011;25977;45.462;9.210;2024-01-30T05:04:10;34.83;;;18.60;;
40256;SDS011;25977;45.462;9.210;2024-01-30T05:06:36;37.38;;;18.70;;
40256;SDS011;25977;45.462;9.210;2024-01-30T05:09:02;33.25;;;17.70;;
40256;SDS011;25977;45.462;9.210;2024-01-30T05:11:31;32.92;;;18.67;;
40256;SDS011;25977;45.462;9.210;2024-01-30T05:14:01;34.97;;;19.40;;
40256;SDS011;25977;45.462;9.210;2024-01-30T05:16:27;34.35;;;18.27;;
40256;SDS011;25977;45.462;9.210;2024-01-30T05:18:53;31.55;;;18.83;;
40256;SDS011;25977;45.462;9.210;2024-01-30T05:21:18;33.53;;;16.92;;
40256;SDS011;25977;45.462;9.210;2024-01-30T05:23:44;26.92;;;16.70;;
40256;SDS011;25977;45.462;9.210;2024-01-30T05:26:09;31.30;;;15.80;;
40256;SDS011;25977;45.462;9.210;2024-01-30T05:28:35;29.08;;;15.40;;
40256;SDS011;25977;45.462;9.210;2024-01-30T05:31:01;28.88;;;16.88;;
40256;SDS011;25977;45.462;9.210;2024-01-30T05:33:27;28.38;;;17.05;;
40256;SDS011;25977;45.462;9.210;2024-01-30T05:35:53;25.75;;;14.65;;
40256;SDS011;25977;45.462;9.210;2024-01-30T05:38:19;30.92;;;16.85;;
40256;SDS011;25977;45.462;9.210;2024-01-30T05:40:45;27.73;;;15.60;;
40256;SDS011;25977;45.462;9.210;2024-01-30T05:43:11;24.60;;;15.20;;
40256;SDS011;25977;45.462;9.210;2024-01-30T05:45:37;30.70;;;17.10;;
40256;SDS011;25977;45.462;9.210;2024-01-30T05:48:03;26.08;;;14.52;;
40256;SDS011;25977;45.462;9.210;2024-01-30T05:50:29;28.13;;;15.40;;
40256;SDS011;25977;45.462;9.210;2024-01-30T05:52:55;25.15;;;15.32;;
40256;SDS011;25977;45.462;9.210;2024-01-30T05:55:21;25.48;;;15.35;;
40256;SDS011;25977;45.462;9.210;2024-01-30T05:57:47;24.08;;;14.23;;
40256;SDS011;25977;45.462;9.210;2024-01-30T06:00:12;24.55;;;14.52;;
40256;SDS011;25977;45.462;9.210;2024-01-30T06:02:38;22.63;;;13.77;;
40256;SDS011;25977;45.462;9.210;2024-01-30T06:05:04;32.47;;;16.83;;
40256;SDS011;25977;45.462;9.210;2024-01-30T06:07:30;29.58;;;16.15;;
40256;SDS011;25977;45.462;9.210;2024-01-30T06:09:56;29.38;;;15.13;;
40256;SDS011;25977;45.462;9.210;2024-01-30T06:12:22;28.05;;;16.08;;
40256;SDS011;25977;45.462;9.210;2024-01-30T06:14:47;27.33;;;14.80;;
40256;SDS011;25977;45.462;9.210;2024-01-30T06:17:13;26.10;;;16.08;;
40256;SDS011;25977;45.462;9.210;2024-01-30T06:19:39;32.75;;;15.45;;
40256;SDS011;25977;45.462;9.210;2024-01-30T06:22:04;27.40;;;14.52;;
40256;SDS011;25977;45.462;9.210;2024-01-30T06:24:30;25.98;;;15.30;;
40256;SDS011;25977;45.462;9.210;2024-01-30T06:26:56;27.67;;;16.55;;
40256;SDS011;25977;45.462;9.210;2024-01-30T06:29:21;26.42;;;14.75;;
40256;SDS011;25977;45.462;9.210;2024-01-30T06:31:49;26.05;;;14.20;;
40256;SDS011;25977;45.462;9.210;2024-01-30T06:34:15;23.45;;;14.65;;
40256;SDS011;25977;45.462;9.210;2024-01-30T06:36:41;33.63;;;16.02;;
40256;SDS011;25977;45.462;9.210;2024-01-30T06:39:07;26.00;;;15.57;;
40256;SDS011;25977;45.462;9.210;2024-01-30T06:41:33;28.27;;;14.75;;
40256;SDS011;25977;45.462;9.210;2024-01-30T06:43:58;31.05;;;17.25;;
40256;SDS011;25977;45.462;9.210;2024-01-30T06:46:24;27.98;;;16.63;;
40256;SDS011;25977;45.462;9.210;2024-01-30T06:48:50;29.15;;;17.85;;
40256;SDS011;25977;45.462;9.210;2024-01-30T06:51:16;29.45;;;17.10;;
40256;SDS011;25977;45.462;9.210;2024-01-30T06:53:41;29.70;;;16.35;;
40256;SDS011;25977;45.462;9.210;2024-01-30T06:56:07;26.42;;;15.77;;
40256;SDS011;25977;45.462;9.210;2024-01-30T06:58:33;37.15;;;17.65;;
40256;SDS011;25977;45.462;9.210;2024-01-30T07:00:58;27.33;;;16.05;;
40256;SDS011;25977;45.462;9.210;2024-01-30T07:03:24;27.02;;;16.92;;
40256;SDS011;25977;45.462;9.210;2024-01-30T07:05:50;30.52;;;15.68;;
40256;SDS011;25977;45.462;9.210;2024-01-30T07:08:16;27.13;;;16.45;;
40256;SDS011;25977;45.462;9.210;2024-01-30T07:10:43;30.77;;;17.70;;
40256;SDS011;25977;45.462;9.210;2024-01-30T07:13:09;24.08;;;15.40;;
40256;SDS011;25977;45.462;9.210;2024-01-30T07:15:35;22.80;;;15.60;;
40256;SDS011;25977;45.462;9.210;2024-01-30T07:18:02;31.13;;;17.15;;
40256;SDS011;25977;45.462;9.210;2024-01-30T07:20:28;35.22;;;16.20;;
40256;SDS011;25977;45.462;9.210;2024-01-30T07:22:56;29.13;;;17.25;;
40256;SDS011;25977;45.462;9.210;2024-01-30T07:25:22;28.30;;;16.58;;
40256;SDS011;25977;45.462;9.210;2024-01-30T07:27:52;35.50;;;15.48;;
40256;SDS011;25977;45.462;9.210;2024-01-30T07:30:18;24.55;;;15.65;;
40256;SDS011;25977;45.462;9.210;2024-01-30T07:32:45;30.10;;;16.48;;
40256;SDS011;25977;45.462;9.210;2024-01-30T07:35:11;29.20;;;16.10;;
40256;SDS011;25977;45.462;9.210;2024-01-30T07:37:38;35.28;;;16.55;;
40256;SDS011;25977;45.462;9.210;2024-01-30T07:40:04;29.25;;;16.15;;
40256;SDS011;25977;45.462;9.210;2024-01-30T07:42:30;27.30;;;15.63;;
40256;SDS011;25977;45.462;9.210;2024-01-30T07:44:56;27.63;;;16.00;;
40256;SDS011;25977;45.462;9.210;2024-01-30T07:47:21;34.83;;;18.25;;
40256;SDS011;25977;45.462;9.210;2024-01-30T07:49:47;31.35;;;15.73;;
40256;SDS011;25977;45.462;9.210;2024-01-30T07:52:13;28.90;;;17.00;;
40256;SDS011;25977;45.462;9.210;2024-01-30T07:54:47;31.60;;;17.60;;
40256;SDS011;25977;45.462;9.210;2024-01-30T07:57:14;32.03;;;16.05;;
40256;SDS011;25977;45.462;9.210;2024-01-30T07:59:41;32.53;;;18.92;;
40256;SDS011;25977;45.462;9.210;2024-01-30T08:02:09;32.50;;;17.42;;
40256;SDS011;25977;45.462;9.210;2024-01-30T08:04:35;32.67;;;17.92;;
40256;SDS011;25977;45.462;9.210;2024-01-30T08:07:00;32.95;;;18.45;;
40256;SDS011;25977;45.462;9.210;2024-01-30T08:09:26;37.60;;;19.40;;
40256;SDS011;25977;45.462;9.210;2024-01-30T08:11:52;35.05;;;18.10;;
40256;SDS011;25977;45.462;9.210;2024-01-30T08:14:18;36.67;;;18.23;;
40256;SDS011;25977;45.462;9.210;2024-01-30T08:16:44;41.13;;;19.70;;
40256;SDS011;25977;45.462;9.210;2024-01-30T08:19:10;33.20;;;18.52;;
40256;SDS011;25977;45.462;9.210;2024-01-30T08:21:35;34.10;;;18.67;;
40256;SDS011;25977;45.462;9.210;2024-01-30T08:24:04;35.65;;;18.95;;
40256;SDS011;25977;45.462;9.210;2024-01-30T08:26:33;35.28;;;18.60;;
40256;SDS011;25977;45.462;9.210;2024-01-30T08:29:00;34.75;;;17.17;;
40256;SDS011;25977;45.462;9.210;2024-01-30T08:31:27;37.15;;;17.88;;
40256;SDS011;25977;45.462;9.210;2024-01-30T08:33:53;34.05;;;19.42;;
40256;SDS011;25977;45.462;9.210;2024-01-30T08:36:19;29.88;;;17.08;;
40256;SDS011;25977;45.462;9.210;2024-01-30T08:38:45;25.83;;;16.75;;
40256;SDS011;25977;45.462;9.210;2024-01-30T08:41:10;33.13;;;17.77;;
40256;SDS011;25977;45.462;9.210;2024-01-30T08:43:36;35.08;;;17.55;;
40256;SDS011;25977;45.462;9.210;2024-01-30T08:46:02;34.17;;;18.92;;
40256;SDS011;25977;45.462;9.210;2024-01-30T08:48:28;32.78;;;17.27;;
40256;SDS011;25977;45.462;9.210;2024-01-30T08:50:54;35.72;;;19.10;;
40256;SDS011;25977;45.462;9.210;2024-01-30T08:53:20;34.75;;;19.92;;
40256;SDS011;25977;45.462;9.210;2024-01-30T08:55:46;37.88;;;18.63;;
40256;SDS011;25977;45.462;9.210;2024-01-30T08:58:11;32.90;;;18.77;;
40256;SDS011;25977;45.462;9.210;2024-01-30T09:00:37;36.00;;;19.20;;
40256;SDS011;25977;45.462;9.210;2024-01-30T09:03:03;36.60;;;19.08;;
40256;SDS011;25977;45.462;9.210;2024-01-30T09:05:29;33.58;;;19.65;;
40256;SDS011;25977;45.462;9.210;2024-01-30T09:07:55;36.88;;;18.90;;
40256;SDS011;25977;45.462;9.210;2024-01-30T09:10:20;35.83;;;18.77;;
40256;SDS011;25977;45.462;9.210;2024-01-30T09:12:47;40.45;;;20.42;;
40256;SDS011;25977;45.462;9.210;2024-01-30T09:15:13;31.77;;;18.63;;
40256;SDS011;25977;45.462;9.210;2024-01-30T09:17:39;38.40;;;19.92;;
40256;SDS011;25977;45.462;9.210;2024-01-30T09:20:05;36.55;;;19.50;;
40256;SDS011;25977;45.462;9.210;2024-01-30T09:22:31;37.30;;;18.65;;
40256;SDS011;25977;45.462;9.210;2024-01-30T09:24:57;39.58;;;19.45;;
40256;SDS011;25977;45.462;9.210;2024-01-30T09:27:23;36.25;;;19.95;;
40256;SDS011;25977;45.462;9.210;2024-01-30T09:29:49;37.67;;;18.17;;
40256;SDS011;25977;45.462;9.210;2024-01-30T09:32:14;37.55;;;19.40;;
40256;SDS011;25977;45.462;9.210;2024-01-30T09:34:40;43.97;;;20.75;;
40256;SDS011;25977;45.462;9.210;2024-01-30T09:37:07;40.65;;;19.95;;
40256;SDS011;25977;45.462;9.210;2024-01-30T09:39:32;33.53;;;20.60;;
40256;SDS011;25977;45.462;9.210;2024-01-30T09:44:28;42.63;;;20.50;;
40256;SDS011;25977;45.462;9.210;2024-01-30T09:46:54;41.17;;;20.13;;
40256;SDS011;25977;45.462;9.210;2024-01-30T09:49:20;43.00;;;22.25;;
40256;SDS011;25977;45.462;9.210;2024-01-30T09:51:49;35.53;;;20.67;;
40256;SDS011;25977;45.462;9.210;2024-01-30T09:54:16;51.65;;;21.35;;
40256;SDS011;25977;45.462;9.210;2024-01-30T09:56:43;50.83;;;23.15;;
40256;SDS011;25977;45.462;9.210;2024-01-30T09:59:08;41.13;;;21.30;;
40256;SDS011;25977;45.462;9.210;2024-01-30T10:01:35;44.88;;;22.83;;
40256;SDS011;25977;45.462;9.210;2024-01-30T10:04:01;50.67;;;23.77;;
40256;SDS011;25977;45.462;9.210;2024-01-30T10:06:27;49.67;;;23.27;;
40256;SDS011;25977;45.462;9.210;2024-01-30T10:08:53;52.47;;;23.33;;
40256;SDS011;25977;45.462;9.210;2024-01-30T10:11:19;36.00;;;20.92;;
40256;SDS011;25977;45.462;9.210;2024-01-30T10:13:45;43.55;;;22.42;;
40256;SDS011;25977;45.462;9.210;2024-01-30T10:16:13;40.42;;;21.80;;
40256;SDS011;25977;45.462;9.210;2024-01-30T10:18:40;44.63;;;23.85;;
40256;SDS011;25977;45.462;9.210;2024-01-30T10:21:07;48.53;;;22.42;;
40256;SDS011;25977;45.462;9.210;2024-01-30T10:23:33;49.78;;;24.08;;
40256;SDS011;25977;45.462;9.210;2024-01-30T10:25:59;44.00;;;24.50;;
40256;SDS011;25977;45.462;9.210;2024-01-30T10:28:27;45.03;;;21.85;;
40256;SDS011;25977;45.462;9.210;2024-01-30T10:30:58;42.70;;;23.83;;
40256;SDS011;25977;45.462;9.210;2024-01-30T10:33:28;51.00;;;22.75;;
40256;SDS011;25977;45.462;9.210;2024-01-30T10:35:59;52.35;;;25.70;;
40256;SDS011;25977;45.462;9.210;2024-01-30T10:38:28;44.65;;;23.30;;
40256;SDS011;25977;45.462;9.210;2024-01-30T10:40:59;49.72;;;25.70;;
40256;SDS011;25977;45.462;9.210;2024-01-30T10:43:35;50.05;;;24.10;;
40256;SDS011;25977;45.462;9.210;2024-01-30T10:46:17;49.55;;;25.70;;
40256;SDS011;25977;45.462;9.210;2024-01-30T10:48:50;55.00;;;26.10;;
40256;SDS011;25977;45.462;9.210;2024-01-30T10:51:28;45.63;;;24.23;;
40256;SDS011;25977;45.462;9.210;2024-01-30T10:53:54;45.53;;;23.15;;
40256;SDS011;25977;45.462;9.210;2024-01-30T10:56:21;51.75;;;26.70;;
40256;SDS011;25977;45.462;9.210;2024-01-30T10:58:51;51.42;;;23.75;;
40256;SDS011;25977;45.462;9.210;2024-01-30T11:01:19;53.97;;;27.08;;
40256;SDS011;25977;45.462;9.210;2024-01-30T11:03:48;49.67;;;25.15;;
40256;SDS011;25977;45.462;9.210;2024-01-30T11:06:15;52.03;;;24.48;;
40256;SDS011;25977;45.462;9.210;2024-01-30T11:08:43;49.08;;;25.48;;
40256;SDS011;25977;45.462;9.210;2024-01-30T11:11:25;54.97;;;27.73;;
40256;SDS011;25977;45.462;9.210;2024-01-30T11:13:50;55.25;;;26.65;;
40256;SDS011;25977;45.462;9.210;2024-01-30T11:16:16;50.35;;;25.25;;
40256;SDS011;25977;45.462;9.210;2024-01-30T11:18:42;49.47;;;25.50;;
40256;SDS011;25977;45.462;9.210;2024-01-30T11:21:08;49.67;;;25.10;;
40256;SDS011;25977;45.462;9.210;2024-01-30T11:23:34;50.75;;;24.95;;
40256;SDS011;25977;45.462;9.210;2024-01-30T11:26:02;51.15;;;26.55;;
40256;SDS011;25977;45.462;9.210;2024-01-30T11:28:33;49.92;;;26.58;;
40256;SDS011;25977;45.462;9.210;2024-01-30T11:31:05;52.60;;;26.95;;
40256;SDS011;25977;45.462;9.210;2024-01-30T11:33:32;47.60;;;27.65;;
40256;SDS011;25977;45.462;9.210;2024-01-30T11:35:59;50.25;;;25.92;;
40256;SDS011;25977;45.462;9.210;2024-01-30T11:38:26;56.78;;;27.85;;
40256;SDS011;25977;45.462;9.210;2024-01-30T11:40:55;57.47;;;30.10;;
40256;SDS011;25977;45.462;9.210;2024-01-30T11:43:24;59.15;;;27.58;;
40256;SDS011;25977;45.462;9.210;2024-01-30T11:45:50;60.85;;;30.42;;
40256;SDS011;25977;45.462;9.210;2024-01-30T11:48:16;66.13;;;27.73;;
40256;SDS011;25977;45.462;9.210;2024-01-30T11:50:42;61.88;;;31.17;;
40256;SDS011;25977;45.462;9.210;2024-01-30T11:53:12;56.58;;;29.45;;
40256;SDS011;25977;45.462;9.210;2024-01-30T11:55:38;60.92;;;31.00;;
40256;SDS011;25977;45.462;9.210;2024-01-30T11:58:04;60.30;;;30.80;;
40256;SDS011;25977;45.462;9.210;2024-01-30T12:00:30;59.53;;;30.55;;
40256;SDS011;25977;45.462;9.210;2024-01-30T12:02:56;69.03;;;34.30;;
40256;SDS011;25977;45.462;9.210;2024-01-30T12:05:22;72.35;;;35.20;;
40256;SDS011;25977;45.462;9.210;2024-01-30T12:07:49;70.80;;;38.33;;
40256;SDS011;25977;45.462;9.210;2024-01-30T12:10:15;76.32;;;38.13;;
40256;SDS011;25977;45.462;9.210;2024-01-30T12:12:41;74.28;;;41.33;;
40256;SDS011;25977;45.462;9.210;2024-01-30T12:15:09;74.80;;;40.30;;
40256;SDS011;25977;45.462;9.210;2024-01-30T12:17:35;67.45;;;35.60;;
40256;SDS011;25977;45.462;9.210;2024-01-30T12:20:09;74.75;;;36.95;;
40256;SDS011;25977;45.462;9.210;2024-01-30T12:22:39;61.30;;;32.67;;
40256;SDS011;25977;45.462;9.210;2024-01-30T12:25:09;60.08;;;31.73;;
40256;SDS011;25977;45.462;9.210;2024-01-30T12:27:35;57.28;;;29.42;;
40256;SDS011;25977;45.462;9.210;2024-01-30T12:30:04;57.30;;;28.50;;
40256;SDS011;25977;45.462;9.210;2024-01-30T12:32:31;60.38;;;30.80;;
40256;SDS011;25977;45.462;9.210;2024-01-30T12:34:56;60.65;;;30.02;;
40256;SDS011;25977;45.462;9.210;2024-01-30T12:37:22;51.92;;;26.10;;
40256;SDS011;25977;45.462;9.210;2024-01-30T12:39:50;54.72;;;28.98;;
40256;SDS011;25977;45.462;9.210;2024-01-30T12:42:19;63.50;;;30.98;;
40256;SDS011;25977;45.462;9.210;2024-01-30T12:44:46;61.45;;;28.92;;
40256;SDS011;25977;45.462;9.210;2024-01-30T12:47:12;50.45;;;27.85;;
40256;SDS011;25977;45.462;9.210;2024-01-30T12:49:41;51.97;;;25.52;;
40256;SDS011;25977;45.462;9.210;2024-01-30T12:52:13;56.28;;;27.73;;
40256;SDS011;25977;45.462;9.210;2024-01-30T12:54:41;57.55;;;29.70;;
40256;SDS011;25977;45.462;9.210;2024-01-30T12:57:07;54.28;;;26.73;;
40256;SDS011;25977;45.462;9.210;2024-01-30T12:59:32;47.83;;;25.90;;
40256;SDS011;25977;45.462;9.210;2024-01-30T13:02:01;50.20;;;25.13;;
40256;SDS011;25977;45.462;9.210;2024-01-30T13:04:28;46.10;;;26.23;;
40256;SDS011;25977;45.462;9.210;2024-01-30T13:06:54;49.13;;;26.80;;
40256;SDS011;25977;45.462;9.210;2024-01-30T13:09:20;46.28;;;26.23;;
40256;SDS011;25977;45.462;9.210;2024-01-30T13:11:46;59.95;;;26.23;;
40256;SDS011;25977;45.462;9.210;2024-01-30T13:14:12;47.33;;;26.42;;
40256;SDS011;25977;45.462;9.210;2024-01-30T13:16:37;54.25;;;26.67;;
40256;SDS011;25977;45.462;9.210;2024-01-30T13:19:03;49.97;;;27.08;;
40256;SDS011;25977;45.462;9.210;2024-01-30T13:21:29;51.60;;;26.15;;
40256;SDS011;25977;45.462;9.210;2024-01-30T13:23:55;52.38;;;28.00;;
40256;SDS011;25977;45.462;9.210;2024-01-30T13:26:20;48.08;;;26.23;;
40256;SDS011;25977;45.462;9.210;2024-01-30T13:28:47;47.15;;;26.75;;
40256;SDS011;25977;45.462;9.210;2024-01-30T13:31:13;50.28;;;27.67;;
40256;SDS011;25977;45.462;9.210;2024-01-30T13:33:40;49.15;;;25.90;;
40256;SDS011;25977;45.462;9.210;2024-01-30T13:36:06;55.00;;;26.52;;
40256;SDS011;25977;45.462;9.210;2024-01-30T13:38:33;47.42;;;25.88;;
40256;SDS011;25977;45.462;9.210;2024-01-30T13:41:00;47.38;;;27.67;;
40256;SDS011;25977;45.462;9.210;2024-01-30T13:43:26;49.05;;;27.50;;
40256;SDS011;25977;45.462;9.210;2024-01-30T13:45:52;49.47;;;25.27;;
40256;SDS011;25977;45.462;9.210;2024-01-30T13:48:19;44.35;;;24.98;;
40256;SDS011;25977;45.462;9.210;2024-01-30T13:50:44;49.95;;;26.42;;
40256;SDS011;25977;45.462;9.210;2024-01-30T13:53:11;51.17;;;26.10;;
40256;SDS011;25977;45.462;9.210;2024-01-30T13:55:37;49.45;;;25.10;;
40256;SDS011;25977;45.462;9.210;2024-01-30T13:58:04;48.85;;;26.40;;
40256;SDS011;25977;45.462;9.210;2024-01-30T14:00:30;45.63;;;25.63;;
40256;SDS011;25977;45.462;9.210;2024-01-30T14:02:56;42.47;;;22.98;;
40256;SDS011;25977;45.462;9.210;2024-01-30T14:05:23;40.70;;;24.00;;
40256;SDS011;25977;45.462;9.210;2024-01-30T14:07:50;44.72;;;25.25;;
40256;SDS011;25977;45.462;9.210;2024-01-30T14:10:16;45.67;;;24.42;;
40256;SDS011;25977;45.462;9.210;2024-01-30T14:12:42;44.50;;;24.85;;
40256;SDS011;25977;45.462;9.210;2024-01-30T14:15:09;44.97;;;25.38;;
40256;SDS011;25977;45.462;9.210;2024-01-30T14:17:36;46.05;;;26.08;;
40256;SDS011;25977;45.462;9.210;2024-01-30T14:20:07;45.65;;;24.83;;